Time;durP1;ratioP1;P1;durP2;ratioP2;P2;SDS_P1;SDS_P2;PMS_P1;PMS_P2;Temp;Humidity;BMP_temperature;BMP_pressure;BME280_temperature;BME280_humidity;BME280_pressure;Samples;Min_cycle;Max_cycle;Signal;HPM_P1;HPM_P2
2023/09/12 00:01:10;;;;;;;1.92;1.20;;;;;;;15.19;60.68;99494.75;4958900;28;20146;-93
2023/09/12 00:03:36;;;;;;;4.60;1.30;;;;;;;15.09;60.66;99479.47;4958210;29;20040;-93
2023/09/12 00:06:02;;;;;;;3.17;1.33;;;;;;;15.09;60.92;99491.13;4941738;29;20039;-94
2023/09/12 00:08:31;;;;;;;4.07;1.35;;;;;;;15.11;61.05;99494.34;4941204;29;20027;-94
2023/09/12 00:11:03;;;;;;;2.58;1.40;;;;;;;15.07;61.56;99506.09;4957525;29;20027;-93
2023/09/12 00:13:29;;;;;;;2.97;1.35;;;;;;;14.89;61.37;99475.97;4940411;29;20460;-94
2023/09/12 00:15:55;;;;;;;2.80;1.40;;;;;;;14.95;61.62;99476.69;4940846;29;20055;-93
2023/09/12 00:18:21;;;;;;;1.95;1.20;;;;;;;14.91;62.02;99491.94;4958074;29;20125;-93
2023/09/12 00:20:47;;;;;;;3.65;1.50;;;;;;;14.88;61.92;99481.69;4941607;29;20417;-94
2023/09/12 00:23:12;;;;;;;2.80;1.48;;;;;;;15.06;62.06;99505.25;4941707;29;20489;-92
2023/09/12 00:25:40;;;;;;;2.83;1.50;;;;;;;14.95;62.38;99507.31;4957847;29;20035;-93
2023/09/12 00:28:09;;;;;;;3.53;1.45;;;;;;;14.72;62.46;99487.34;4957862;29;20035;-93
2023/09/12 00:30:35;;;;;;;3.30;1.75;;;;;;;14.77;62.71;99499.19;4956937;29;20038;-94
2023/09/12 00:33:00;;;;;;;5.30;2.72;;;;;;;14.69;62.72;99487.09;4957054;29;20042;-93
2023/09/12 00:35:28;;;;;;;2.85;1.58;;;;;;;14.71;62.36;99488.44;4940814;29;20031;-93
2023/09/12 00:37:55;;;;;;;2.35;1.30;;;;;;;14.67;62.68;99479.28;4955641;29;20040;-93
2023/09/12 00:40:21;;;;;;;2.33;1.38;;;;;;;14.73;62.82;99488.13;4958270;29;20051;-94
2023/09/12 00:42:46;;;;;;;8.13;1.70;;;;;;;14.80;62.61;99490.50;4941899;29;20042;-94
2023/09/12 00:45:12;;;;;;;5.75;1.67;;;;;;;14.68;62.66;99474.66;4941636;29;20035;-96
2023/09/12 00:47:38;;;;;;;3.42;2.30;;;;;;;14.92;62.51;99505.22;4941447;29;20417;-94
2023/09/12 00:50:06;;;;;;;3.67;1.73;;;;;;;14.77;62.33;99472.09;4942054;29;20502;-93
2023/09/12 00:52:33;;;;;;;2.83;1.50;;;;;;;14.80;62.65;99485.09;4958272;29;20556;-91
2023/09/12 00:54:58;;;;;;;3.75;1.70;;;;;;;14.90;62.76;99501.16;4955395;29;20034;-89
2023/09/12 00:57:24;;;;;;;3.72;1.63;;;;;;;15.01;62.25;99507.25;4941022;29;20047;-92
2023/09/12 00:59:49;;;;;;;3.08;1.40;;;;;;;15.02;62.66;99508.88;4943888;29;20046;-91
2023/09/12 01:02:15;;;;;;;2.00;1.35;;;;;;;14.99;62.66;99504.03;4959161;29;20489;-89
2023/09/12 01:04:42;;;;;;;3.97;1.25;;;;;;;14.97;62.43;99501.63;4958447;29;20485;-90
2023/09/12 01:07:07;;;;;;;2.85;1.60;;;;;;;14.93;62.42;99489.75;4960082;29;20444;-90
2023/09/12 01:09:33;;;;;;;3.58;1.73;;;;;;;15.04;62.48;99506.66;4959636;29;20102;-90
2023/09/12 01:12:02;;;;;;;7.70;1.30;;;;;;;15.07;62.75;99519.66;4943451;29;20046;-91
2023/09/12 01:14:29;;;;;;;6.82;1.30;;;;;;;14.92;62.94;99498.97;4959737;29;20038;-91
2023/09/12 01:16:55;;;;;;;7.40;1.63;;;;;;;14.94;63.05;99503.03;4960328;28;20085;-91
2023/09/12 01:19:21;;;;;;;5.47;1.52;;;;;;;14.88;62.88;99497.94;4959593;29;20046;-90
2023/09/12 01:22:03;;;;;;;3.85;1.52;;;;;;;14.86;63.00;99503.69;4958955;29;20051;-90
2023/09/12 01:25:13;;;;;;;7.57;1.55;;;;;;;14.99;63.13;99518.41;4959085;29;20035;-90
2023/09/12 01:27:47;;;;;;;2.80;1.38;;;;;;;14.80;63.25;99495.91;4949246;28;20031;-90
2023/09/12 01:30:14;;;;;;;2.08;1.30;;;;;;;14.80;63.03;99502.13;4943426;29;20581;-91
2023/09/12 01:32:40;;;;;;;5.32;1.35;;;;;;;14.74;62.97;99484.34;4943425;29;20039;-91
2023/09/12 01:35:06;;;;;;;2.20;1.33;;;;;;;14.77;62.73;99485.66;4942938;29;20465;-91
2023/09/12 01:37:32;;;;;;;8.18;1.80;;;;;;;14.93;62.89;99511.44;4943712;29;20088;-91
2023/09/12 01:40:03;;;;;;;3.38;1.40;;;;;;;14.94;62.84;99504.91;4975000;28;20035;-91
2023/09/12 01:42:32;;;;;;;2.08;1.40;;;;;;;14.79;62.90;99486.16;4958508;28;20039;-91
2023/09/12 01:44:58;;;;;;;2.50;1.45;;;;;;;14.87;63.00;99489.00;4958649;29;20027;-91
2023/09/12 01:47:24;;;;;;;2.00;1.25;;;;;;;14.93;62.89;99495.16;4959165;29;20031;-91
2023/09/12 01:49:52;;;;;;;1.85;1.20;;;;;;;14.84;63.02;99489.63;4974534;28;20405;-91
2023/09/12 01:52:18;;;;;;;3.80;1.40;;;;;;;14.89;63.20;99505.00;4974058;28;20098;-91
2023/09/12 01:54:43;;;;;;;4.47;1.33;;;;;;;14.75;63.28;99491.34;4958021;29;20032;-91
2023/09/12 01:57:09;;;;;;;4.05;1.85;;;;;;;14.74;63.08;99497.91;4958939;29;20039;-90
2023/09/12 01:59:34;;;;;;;2.67;1.38;;;;;;;14.74;63.43;99487.06;4942628;29;20039;-91
2023/09/12 02:02:00;;;;;;;4.22;1.38;;;;;;;14.76;63.44;99501.13;4958532;29;20061;-90
2023/09/12 02:04:25;;;;;;;3.42;1.60;;;;;;;14.60;63.49;99472.63;4958990;29;20032;-91
2023/09/12 02:06:51;;;;;;;3.85;1.65;;;;;;;14.85;63.33;99514.81;4958000;29;20031;-90
2023/09/12 02:09:18;;;;;;;5.35;1.92;;;;;;;14.63;63.42;99488.28;4975147;28;20027;-92
2023/09/12 02:11:43;;;;;;;2.97;1.40;;;;;;;14.65;63.64;99491.50;4957870;28;20031;-91
2023/09/12 02:14:10;;;;;;;3.85;1.33;;;;;;;14.74;63.75;99501.41;4957864;29;20034;-91
2023/09/12 02:16:37;;;;;;;4.68;1.25;;;;;;;14.65;63.58;99486.09;4973316;28;20541;-91
2023/09/12 02:19:02;;;;;;;6.80;1.40;;;;;;;14.67;63.46;99490.13;4943772;29;20043;-92
2023/09/12 02:21:28;;;;;;;3.35;1.65;;;;;;;14.65;63.85;99492.31;4957891;29;20034;-91
2023/09/12 02:23:54;;;;;;;29.98;19.67;;;;;;;14.68;64.13;99501.78;4958168;29;20057;-91
2023/09/12 02:26:19;;;;;;;10.10;3.78;;;;;;;14.65;64.16;99502.34;4975445;28;20042;-91
2023/09/12 02:28:45;;;;;;;3.65;1.60;;;;;;;14.64;64.01;99490.69;4958655;29;20074;-91
2023/09/12 02:31:11;;;;;;;3.33;1.58;;;;;;;14.61;63.98;99483.16;4959123;29;20030;-91
2023/09/12 02:33:39;;;;;;;3.92;1.33;;;;;;;14.73;64.41;99507.94;4959576;29;20023;-90
2023/09/12 02:36:05;;;;;;;2.63;1.50;;;;;;;14.60;64.26;99499.72;4969277;28;20050;-91
2023/09/12 02:38:31;;;;;;;4.70;1.70;;;;;;;14.57;64.34;99497.56;4949828;29;20031;-91
2023/09/12 02:40:57;;;;;;;5.90;1.30;;;;;;;14.62;64.43;99505.66;4948706;29;20148;-92
2023/09/12 02:43:22;;;;;;;2.63;1.50;;;;;;;14.59;64.25;99504.34;4941766;29;20505;-91
2023/09/12 02:45:48;;;;;;;4.03;1.55;;;;;;;14.52;64.32;99496.50;4957762;29;20027;-90
2023/09/12 02:48:13;;;;;;;5.68;1.55;;;;;;;14.49;63.88;99493.59;4942838;29;20035;-93
2023/09/12 02:50:39;;;;;;;3.55;1.48;;;;;;;14.52;63.85;99503.84;4942843;29;20035;-91
2023/09/12 02:53:06;;;;;;;3.95;1.65;;;;;;;14.58;63.83;99502.72;4942443;29;20039;-91
2023/09/12 02:55:31;;;;;;;3.40;1.63;;;;;;;14.41;64.03;99478.78;4952606;28;20462;-92
2023/09/12 02:57:57;;;;;;;3.75;1.63;;;;;;;14.46;64.06;99491.47;4947609;28;20050;-90
2023/09/12 03:00:23;;;;;;;7.47;1.73;;;;;;;14.40;64.44;99493.44;4943388;29;20042;-92
2023/09/12 03:02:49;;;;;;;6.68;1.42;;;;;;;14.39;64.50;99494.53;4942354;29;20034;-93
2023/09/12 03:05:14;;;;;;;2.95;1.42;;;;;;;14.47;64.63;99507.44;4942147;29;20078;-91
2023/09/12 03:07:41;;;;;;;3.15;1.92;;;;;;;14.42;64.63;99512.09;4957881;29;20031;-91
2023/09/12 03:10:07;;;;;;;6.90;1.48;;;;;;;14.34;64.96;99511.66;4942343;29;20035;-91
2023/09/12 03:12:32;;;;;;;5.25;1.40;;;;;;;14.35;64.86;99501.63;4938572;29;20067;-91
2023/09/12 03:15:07;;;;;;;2.78;1.50;;;;;;;14.28;64.86;99493.84;4957932;29;20046;-91
2023/09/12 03:17:33;;;;;;;4.35;1.50;;;;;;;14.27;64.93;99497.66;4957530;29;20039;-91
2023/09/12 03:20:11;;;;;;;1.95;1.55;;;;;;;14.42;64.97;99520.22;4942028;29;20122;-91
2023/09/12 03:22:37;;;;;;;5.28;1.80;;;;;;;14.33;64.94;99509.22;4959372;28;20039;-91
2023/09/12 03:25:32;;;;;;;3.58;1.85;;;;;;;14.25;65.19;99501.75;4941129;29;20035;-92
2023/09/12 03:27:57;;;;;;;11.40;1.92;;;;;;;14.26;65.29;99506.09;4947646;28;20078;-92
2023/09/12 03:30:23;;;;;;;3.97;1.70;;;;;;;14.26;65.03;99503.38;4928643;28;20042;-91
2023/09/12 03:32:51;;;;;;;2.10;1.40;;;;;;;14.25;65.47;99501.75;4958116;28;20042;-91
2023/09/12 03:35:18;;;;;;;7.45;1.70;;;;;;;14.21;65.25;99501.50;4955842;28;20035;-91
2023/09/12 03:37:43;;;;;;;9.60;1.70;;;;;;;14.29;65.14;99519.03;4957294;28;20042;-92
2023/09/12 03:40:11;;;;;;;6.32;1.83;;;;;;;14.27;65.17;99521.22;4941431;28;20482;-92
2023/09/12 03:42:48;;;;;;;2.90;1.90;;;;;;;14.09;65.33;99509.22;4944297;28;20050;-91
2023/09/12 03:45:32;;;;;;;4.95;1.88;;;;;;;13.94;65.29;99494.81;4918678;29;20032;-91
2023/09/12 03:51:15;;;;;;;9.05;2.17;;;;;;;13.69;66.03;99493.16;4904155;29;20043;-92
2023/09/12 03:53:40;;;;;;;5.18;1.80;;;;;;;13.72;66.23;99505.31;4886055;29;20041;-93
2023/09/12 03:56:12;;;;;;;6.53;2.20;;;;;;;13.62;66.49;99500.00;4886312;29;20539;-93
2023/09/12 03:58:39;;;;;;;3.25;1.88;;;;;;;13.46;66.01;99486.59;4880545;29;20040;-92
2023/09/12 04:01:09;;;;;;;4.63;1.83;;;;;;;13.64;66.01;99522.16;4883388;29;20048;-93
2023/09/12 04:03:40;;;;;;;3.70;1.95;;;;;;;13.51;66.25;99513.63;4899103;29;20119;-91
2023/09/12 04:06:12;;;;;;;4.25;2.20;;;;;;;13.40;66.62;99511.28;4883740;29;20152;-93
2023/09/12 04:08:43;;;;;;;4.47;2.53;;;;;;;13.46;66.35;99510.16;4898836;29;20044;-92
2023/09/12 04:11:12;;;;;;;;;;;;;;;13.60;66.33;99534.66;4899738;29;20036;-91
2023/09/12 04:13:45;;;;;;;5.03;2.67;;;;;;;13.59;66.27;99528.41;4884485;29;19919;-91
2023/09/12 04:16:11;;;;;;;4.22;1.98;;;;;;;13.58;65.45;99507.06;4904687;29;20052;-92
2023/09/12 04:18:41;;;;;;;6.90;2.47;;;;;;;13.75;65.61;99529.88;4956292;28;20051;-92
2023/09/12 04:21:19;;;;;;;7.82;2.25;;;;;;;13.71;65.13;99517.22;4957878;29;20043;-93
2023/09/12 04:23:50;;;;;;;6.72;2.63;;;;;;;13.75;64.88;99521.78;4948692;28;20046;-92
2023/09/12 04:26:29;;;;;;;10.32;3.05;;;;;;;13.72;65.13;99505.31;4963824;28;20042;-93
2023/09/12 04:29:29;;;;;;;14.85;5.20;;;;;;;13.74;65.09;99511.25;4942473;29;20063;-94
2023/09/12 04:32:26;;;;;;;5.60;3.08;;;;;;;13.85;65.40;99511.94;4919203;29;20039;-94
2023/09/12 04:34:53;;;;;;;9.68;2.85;;;;;;;13.92;65.29;99529.47;4937103;29;20454;-92
2023/09/12 04:37:22;;;;;;;3.75;2.40;;;;;;;13.95;65.43;99531.59;4930591;29;20040;-91
2023/09/12 04:39:51;;;;;;;9.73;3.40;;;;;;;14.04;65.26;99528.25;4925997;29;20105;-92
2023/09/12 04:42:20;;;;;;;25.40;5.38;;;;;;;14.12;64.91;99524.91;4921605;29;20629;-92
2023/09/12 04:45:03;;;;;;;33.67;7.78;;;;;;;14.33;64.89;99542.53;4906104;29;20332;-92
2023/09/12 04:47:31;;;;;;;46.70;9.40;;;;;;;14.31;64.67;99531.19;4933206;29;20040;-92
2023/09/12 04:50:07;;;;;;;118.85;22.73;;;;;;;14.37;65.01;99548.19;4924302;29;20541;-92
2023/09/12 04:52:46;;;;;;;;;;;;;;;;;;;;;
2023/09/12 04:55:23;;;;;;;127.45;23.15;;;;;;;14.37;65.25;99525.72;4933843;29;20076;-95
2023/09/12 04:58:25;;;;;;;;;;;;;;;;;;;;;
2023/09/12 05:04:33;;;;;;;12.65;4.40;;;;;;;14.38;64.26;99517.31;4896421;29;20044;-96
2023/09/12 05:07:52;;;;;;;50.45;11.00;;;;;;;14.62;64.22;99552.50;4911649;29;20040;-94
2023/09/12 05:11:03;;;;;;;129.32;24.95;;;;;;;14.56;62.98;99521.16;4885142;29;20041;-95
2023/09/12 05:14:07;;;;;;;;;;;;;;;;;;;;;
2023/09/12 05:17:14;;;;;;;107.50;22.15;;;;;;;14.71;62.79;99526.41;5030408;23;20098;-96
2023/09/12 05:20:18;;;;;;;84.35;16.92;;;;;;;15.03;61.94;99557.38;4885384;29;20139;-96
2023/09/12 05:26:08;;;;;;;;;;;;;;;;;;;;;
2023/09/12 05:31:21;;;;;;;23.67;9.43;;;;;;;15.31;61.26;99527.66;5181963;23;19922;-96
2023/09/12 05:34:30;;;;;;;11.93;6.18;;;;;;;15.47;61.36;99566.22;4920592;29;20069;-96
2023/09/12 05:37:20;;;;;;;;;;;;;;;;;;;;;
2023/09/12 05:47:11;;;;;;;7.23;2.80;;;;;;;15.80;59.68;99548.03;4884435;29;20112;-92
2023/09/12 05:49:40;;;;;;;12.00;3.28;;;;;;;15.85;59.81;99545.22;4902986;29;20403;-93
2023/09/12 05:52:09;;;;;;;8.68;2.72;;;;;;;15.89;59.23;99521.81;4907440;29;20072;-92
2023/09/12 05:57:35;;;;;;;10.70;2.30;;;;;;;15.99;59.07;99515.38;4911254;29;20048;-96
2023/09/12 06:01:05;;;;;;;4.20;2.13;;;;;;;16.12;58.02;99514.59;4884286;29;20060;-96
2023/09/12 06:07:35;;;;;;;6.93;2.60;;;;;;;16.44;56.92;99521.00;4853710;29;20077;-92
2023/09/12 06:30:34;;;;;;;4.53;1.92;;;;;;;17.61;54.01;99543.94;4768861;30;20143;-95
2023/09/12 06:37:24;;;;;;;;;;;;;;;;;;;;;
2023/09/12 06:40:56;;;;;;;3.90;1.92;;;;;;;18.16;52.80;99540.88;4723710;30;20139;-93
2023/09/12 06:43:27;;;;;;;9.30;2.80;;;;;;;18.53;52.88;99581.56;4707526;30;20045;-95
2023/09/12 06:53:01;;;;;;;7.93;2.17;;;;;;;18.95;51.44;99576.56;4888614;29;20029;-93
2023/09/12 06:59:11;;;;;;;4.68;2.10;;;;;;;19.03;51.41;99550.38;4889569;29;20044;-93
2023/09/12 07:02:17;;;;;;;;;;;;;;;;;;;;;
2023/09/12 07:05:15;;;;;;;3.83;1.60;;;;;;;19.56;50.66;99582.00;4862330;29;20067;-94
2023/09/12 07:08:02;;;;;;;13.55;4.97;;;;;;;19.63;50.29;99567.84;4855105;29;20037;-93
2023/09/12 07:13:41;;;;;;;10.43;6.60;;;;;;;19.84;49.55;99541.50;4899745;29;20055;-93
2023/09/12 07:16:11;;;;;;;8.73;2.30;;;;;;;20.09;48.40;99564.41;4888553;29;20044;-94
2023/09/12 07:18:41;;;;;;;6.63;2.60;;;;;;;20.18;48.53;99556.16;4924607;29;20059;-93
2023/09/12 07:21:28;;;;;;;9.03;3.13;;;;;;;20.21;49.59;99558.22;4909878;29;20055;-95
2023/09/12 07:23:56;;;;;;;3.22;2.10;;;;;;;20.46;49.33;99562.00;4910470;29;20486;-94
2023/09/12 07:26:25;;;;;;;3.75;1.90;;;;;;;20.65;47.25;99552.56;4913675;29;20036;-94
2023/09/12 07:28:51;;;;;;;5.72;2.10;;;;;;;20.68;48.09;99554.66;4900238;29;20044;-93
2023/09/12 07:31:18;;;;;;;5.72;3.22;;;;;;;20.81;47.78;99558.25;4892524;29;20075;-94
2023/09/12 07:33:48;;;;;;;6.50;2.80;;;;;;;21.12;47.46;99577.84;4928355;29;20486;-94
2023/09/12 07:36:17;;;;;;;5.90;2.78;;;;;;;21.24;47.57;99562.63;4911673;29;20521;-96
2023/09/12 07:38:49;;;;;;;14.18;8.85;;;;;;;21.41;48.06;99556.97;4924965;29;20551;-94
2023/09/12 07:41:24;;;;;;;8.40;3.15;;;;;;;21.52;46.83;99560.13;4933808;29;20043;-93
2023/09/12 07:44:10;;;;;;;;;;;;;;;;;;;;;
2023/09/12 07:47:14;;;;;;;;;;;;;;;;;;;;;
2023/09/12 07:49:41;;;;;;;6.07;2.42;;;;;;;21.82;46.60;99552.56;4941236;29;20577;-93
2023/09/12 07:52:16;;;;;;;7.22;2.17;;;;;;;22.14;46.31;99583.81;4945793;29;20135;-93
2023/09/12 07:58:51;;;;;;;3.40;1.60;;;;;;;22.09;45.20;99545.63;4950150;29;20106;-92
2023/09/12 08:01:27;;;;;;;4.65;2.55;;;;;;;22.34;44.68;99560.19;4938946;29;20377;-92
2023/09/12 08:03:53;;;;;;;5.55;2.20;;;;;;;22.47;44.72;99562.94;4930864;29;20054;-93
2023/09/12 08:06:28;;;;;;;38.95;4.85;;;;;;;22.57;44.08;99557.00;4912971;29;20048;-93
2023/09/12 08:08:54;;;;;;;2.83;1.90;;;;;;;22.70;43.05;99555.84;4946315;29;20040;-93
2023/09/12 08:13:55;;;;;;;2.97;1.75;;;;;;;22.80;41.99;99549.84;5292546;23;20031;-92
2023/09/12 08:16:22;;;;;;;5.72;2.35;;;;;;;23.14;41.85;99564.25;4952541;29;20038;-92
2023/09/12 08:18:49;;;;;;;5.72;1.80;;;;;;;23.26;41.90;99560.63;4947637;29;20049;-92
2023/09/12 08:21:17;;;;;;;3.20;1.50;;;;;;;23.37;39.34;99552.72;4932437;29;20031;-91
2023/09/12 08:23:42;;;;;;;8.07;4.00;;;;;;;23.58;39.18;99558.78;4930333;29;20023;-92
2023/09/12 08:26:14;;;;;;;7.68;2.90;;;;;;;23.70;38.85;99548.88;4932354;29;20115;-93
2023/09/12 08:28:40;;;;;;;;;;;;;;;23.88;39.05;99563.13;4946885;29;20095;-93
2023/09/12 08:31:27;;;;;;;4.93;2.03;;;;;;;23.95;39.08;99555.06;4952604;29;19933;-93
2023/09/12 08:37:22;;;;;;;9.35;2.35;;;;;;;24.07;38.75;99532.97;4943417;29;20029;-96
2023/09/12 08:39:48;;;;;;;5.07;1.90;;;;;;;24.18;37.74;99523.03;4948773;29;20046;-95
2023/09/12 08:42:25;;;;;;;4.38;2.08;;;;;;;24.47;36.98;99540.22;4965024;29;20513;-93
2023/09/12 08:45:03;;;;;;;5.03;1.83;;;;;;;24.62;35.51;99540.56;5045984;23;20371;-94
2023/09/12 08:47:29;;;;;;;6.13;2.53;;;;;;;24.67;35.55;99535.56;4965783;29;20051;-95
2023/09/12 08:50:26;;;;;;;;;;;;;;;;;;;;;
2023/09/12 08:53:05;;;;;;;3.85;2.00;;;;;;;24.79;33.96;99509.88;4959782;29;20070;-95
2023/09/12 08:55:41;;;;;;;6.18;2.13;;;;;;;24.87;34.10;99506.13;4910502;29;20136;-93
2023/09/12 08:58:41;;;;;;;6.38;2.85;;;;;;;24.93;33.59;99512.94;4892394;29;20565;-92
2023/09/12 09:16:35;;;;;;;4.35;1.98;;;;;;;25.66;35.39;99537.22;4969993;28;20046;-94
2023/09/12 09:19:42;;;;;;;7.07;2.65;;;;;;;25.61;35.70;99502.47;4964578;28;20027;-93
2023/09/12 09:22:43;;;;;;;8.02;3.28;;;;;;;25.73;34.47;99502.28;4888663;29;20176;-92
2023/09/12 09:26:07;;;;;;;4.03;1.90;;;;;;;25.84;34.08;99501.66;4886560;29;20037;-94
2023/09/12 09:28:43;;;;;;;;;;;;;;;;;;;;;
2023/09/12 09:31:21;;;;;;;7.80;3.45;;;;;;;25.97;35.02;99498.38;4892669;29;20101;-96
2023/09/12 09:34:01;;;;;;;;;;;;;;;;;;;;;
2023/09/12 09:36:27;;;;;;;5.75;2.30;;;;;;;26.23;32.52;99507.88;4899181;29;20142;-95
2023/09/12 09:46:37;;;;;;;;;;;;;;;;;;;;;
2023/09/12 09:49:55;;;;;;;6.57;2.65;;;;;;;26.51;32.56;99503.94;4834449;29;20109;-94
2023/09/12 09:53:15;;;;;;;;;;;;;;;;;;;;;
2023/09/12 10:21:12;;;;;;;5.38;2.53;;;;;;;27.20;32.19;99487.84;4983451;28;20074;-93
2023/09/12 10:23:50;;;;;;;13.70;6.57;;;;;;;27.23;32.84;99488.28;4954968;28;20050;-93
2023/09/12 10:29:53;;;;;;;7.18;2.55;;;;;;;27.33;31.57;99484.84;4876954;29;20037;-93
2023/09/12 10:32:59;;;;;;;9.77;3.03;;;;;;;27.45;31.41;99492.88;4854133;29;20063;-92
2023/09/12 10:35:37;;;;;;;3.50;2.17;;;;;;;27.51;31.30;99494.13;4918700;29;20422;-91
2023/09/12 10:38:06;;;;;;;6.35;2.97;;;;;;;27.47;31.56;99473.94;4912912;29;20109;-95
2023/09/12 10:47:03;;;;;;;4.32;2.75;;;;;;;27.56;30.65;99460.59;4868819;29;20547;-93
2023/09/12 11:03:25;;;;;;;;;;;;;;;27.78;30.85;99460.78;4897939;29;20118;-94
2023/09/12 11:06:44;;;;;;;10.35;4.13;;;;;;;27.82;31.46;99465.16;4905883;29;19931;-95
2023/09/12 11:09:25;;;;;;;6.18;3.10;;;;;;;27.74;31.47;99462.72;4894511;29;20036;-96
2023/09/12 11:12:07;;;;;;;2.67;1.85;;;;;;;27.58;30.79;99429.78;4887446;29;20040;-95
2023/09/12 11:14:33;;;;;;;4.65;2.15;;;;;;;27.81;30.54;99449.75;4953890;28;20031;-95
2023/09/12 11:17:08;;;;;;;5.60;2.10;;;;;;;27.81;30.63;99457.25;4936314;28;20034;-96
2023/09/12 11:20:10;;;;;;;8.35;2.55;;;;;;;27.76;30.74;99439.00;4965973;28;20114;-95
2023/09/12 11:22:40;;;;;;;7.15;3.40;;;;;;;27.74;30.86;99446.13;4952336;28;20122;-93
2023/09/12 11:25:26;;;;;;;8.57;2.40;;;;;;;27.73;30.67;99428.72;4951797;28;20058;-95
2023/09/12 11:28:06;;;;;;;7.82;3.42;;;;;;;27.56;31.18;99421.09;4950450;28;20493;-94
2023/09/12 11:30:35;;;;;;;6.32;2.80;;;;;;;27.70;31.03;99412.88;4934544;28;20041;-95
2023/09/12 11:36:11;;;;;;;9.40;3.17;;;;;;;27.79;31.44;99429.19;4944550;29;20035;-95
2023/09/12 11:41:38;;;;;;;4.63;2.50;;;;;;;28.00;30.75;99434.09;5219753;23;20047;-92
2023/09/12 11:44:53;;;;;;;6.45;2.75;;;;;;;27.77;30.34;99415.72;4985265;28;20058;-92
2023/09/12 11:47:21;;;;;;;3.72;2.40;;;;;;;27.93;31.16;99434.03;4958859;28;20046;-91
2023/09/12 11:49:48;;;;;;;4.30;2.70;;;;;;;27.97;31.07;99424.59;4933105;28;20049;-94
2023/09/12 11:52:21;;;;;;;6.28;2.33;;;;;;;27.92;30.38;99427.72;4938150;28;20035;-93
2023/09/12 11:54:47;;;;;;;7.72;3.78;;;;;;;27.88;30.81;99426.09;4952421;28;20026;-92
2023/09/12 11:57:23;;;;;;;6.13;2.38;;;;;;;27.77;30.55;99406.63;4950000;29;20046;-95
2023/09/12 11:59:56;;;;;;;6.45;2.22;;;;;;;27.79;30.58;99410.59;4920395;29;20182;-94
2023/09/12 12:02:36;;;;;;;5.95;2.25;;;;;;;27.78;30.86;99408.19;4904591;29;20102;-93
2023/09/12 12:05:04;;;;;;;8.23;2.75;;;;;;;27.78;31.02;99411.75;4929909;29;20035;-95
2023/09/12 12:07:49;;;;;;;;;;;;;;;;;;;;;
2023/09/12 12:10:30;;;;;;;8.18;2.85;;;;;;;27.73;30.74;99405.81;4961317;28;20114;-96
2023/09/12 12:13:01;;;;;;;7.60;2.80;;;;;;;27.78;30.55;99389.63;4929555;28;20045;-93
2023/09/12 12:15:35;;;;;;;8.07;2.70;;;;;;;27.89;30.99;99408.31;4956308;28;20505;-93
2023/09/12 12:18:46;;;;;;;7.07;2.63;;;;;;;27.74;30.24;99388.81;4929028;29;20043;-94
2023/09/12 12:21:17;;;;;;;5.82;2.78;;;;;;;27.98;30.23;99412.34;4989525;28;20039;-93
2023/09/12 12:24:09;;;;;;;4.60;2.55;;;;;;;27.96;30.18;99414.69;4935328;28;20030;-94
2023/09/12 12:26:44;;;;;;;6.25;2.50;;;;;;;27.95;30.15;99398.47;4943559;29;20075;-96
2023/09/12 12:29:43;;;;;;;5.78;3.42;;;;;;;27.91;30.19;99386.56;4949292;28;20030;-93
2023/09/12 12:32:09;;;;;;;6.80;3.03;;;;;;;27.87;30.96;99383.81;4946619;28;20038;-93
2023/09/12 12:34:38;;;;;;;6.35;3.40;;;;;;;28.01;31.30;99403.25;4947989;28;20042;-91
2023/09/12 12:37:07;;;;;;;11.52;2.72;;;;;;;27.94;30.52;99377.53;4964082;28;20037;-94
2023/09/12 12:39:55;;;;;;;6.80;2.45;;;;;;;27.96;29.99;99372.38;4933973;28;20066;-95
2023/09/12 12:42:48;;;;;;;6.15;2.40;;;;;;;27.93;30.24;99371.19;4937815;28;20033;-93
2023/09/12 12:55:12;;;;;;;7.45;2.88;;;;;;;28.29;30.01;99390.75;4938943;29;20430;-93
2023/09/12 12:57:42;;;;;;;5.30;2.45;;;;;;;28.28;29.36;99388.38;4914864;29;20043;-93
2023/09/12 13:00:39;;;;;;;5.63;2.53;;;;;;;28.27;29.56;99382.06;4917295;29;20027;-92
2023/09/12 13:03:10;;;;;;;5.88;2.50;;;;;;;28.27;29.87;99387.59;4888132;29;20034;-92
2023/09/12 13:09:49;;;;;;;11.38;4.65;;;;;;;28.19;29.55;99375.69;4912361;29;20076;-94
2023/09/12 13:12:17;;;;;;;4.28;2.58;;;;;;;28.17;29.55;99361.44;4929252;29;20111;-93
2023/09/12 13:14:44;;;;;;;6.22;3.05;;;;;;;28.40;30.07;99391.59;4930393;29;20070;-94
2023/09/12 13:17:10;;;;;;;7.60;2.72;;;;;;;28.31;30.25;99369.03;4926848;29;20066;-94
2023/09/12 13:19:35;;;;;;;9.15;2.80;;;;;;;28.38;30.44;99380.13;4929739;28;20015;-94
2023/09/12 13:22:04;;;;;;;4.55;2.53;;;;;;;28.40;30.06;99372.22;4949532;28;20034;-93
2023/09/12 13:25:02;;;;;;;9.75;2.90;;;;;;;28.42;30.53;99375.38;4964491;28;20043;-95
2023/09/12 13:27:47;;;;;;;6.80;3.08;;;;;;;28.58;30.14;99388.94;4960757;28;20038;-94
2023/09/12 13:30:37;;;;;;;6.85;2.53;;;;;;;28.60;30.56;99386.59;4949049;28;20031;-93
2023/09/12 13:33:25;;;;;;;4.90;2.88;;;;;;;28.58;30.34;99377.06;4953071;28;20039;-94
2023/09/12 13:35:54;;;;;;;9.68;3.20;;;;;;;28.56;30.63;99377.47;4952954;28;20035;-94
2023/09/12 13:38:24;;;;;;;6.47;2.85;;;;;;;28.53;30.23;99358.03;4938505;28;20129;-94
2023/09/12 13:40:50;;;;;;;7.78;2.83;;;;;;;28.64;30.25;99367.22;4936534;28;20074;-93
2023/09/12 13:43:18;;;;;;;5.88;3.00;;;;;;;28.67;30.14;99363.63;4971869;28;20050;-92
2023/09/12 13:45:55;;;;;;;9.60;3.15;;;;;;;28.72;30.04;99359.69;4948701;28;20034;-91
2023/09/12 13:48:25;;;;;;;6.78;3.20;;;;;;;28.82;29.63;99370.00;4968144;28;20038;-92
2023/09/12 13:51:00;;;;;;;10.52;5.60;;;;;;;28.82;29.07;99361.69;4947761;28;20464;-95
2023/09/12 13:53:53;;;;;;;4.38;2.50;;;;;;;28.88;28.81;99362.13;4955600;28;20027;-96
2023/09/12 13:56:36;;;;;;;7.53;2.75;;;;;;;29.03;28.84;99374.81;4953902;28;20038;-94
2023/09/12 14:02:21;;;;;;;;;;;;;;;;;;;;;
2023/09/12 14:05:00;;;;;;;7.47;2.25;;;;;;;28.89;27.33;99353.41;4936321;29;20624;-95
2023/09/12 14:07:26;;;;;;;7.05;2.10;;;;;;;29.09;28.08;99373.22;4919248;29;20050;-94
2023/09/12 14:10:32;;;;;;;6.30;2.90;;;;;;;29.11;27.77;99365.34;4919286;29;20043;-96
2023/09/12 14:13:05;;;;;;;8.50;2.78;;;;;;;29.18;27.67;99350.72;4901551;29;20074;-94
2023/09/12 14:15:34;;;;;;;7.57;2.50;;;;;;;29.27;27.12;99362.19;4917372;29;20031;-95
2023/09/12 14:18:45;;;;;;;6.10;2.40;;;;;;;29.32;27.13;99369.31;4915942;29;20054;-96
2023/09/12 14:21:15;;;;;;;6.88;3.47;;;;;;;29.42;26.90;99358.22;4947096;29;20069;-96
2023/09/12 14:23:43;;;;;;;6.22;2.25;;;;;;;29.52;26.43;99367.75;4925803;28;20042;-95
2023/09/12 14:26:12;;;;;;;7.90;2.97;;;;;;;29.53;26.38;99355.47;4950302;28;20189;-96
2023/09/12 14:35:29;;;;;;;;;;;;;;;29.94;26.53;99377.22;4951029;28;20076;-95
2023/09/12 14:38:00;;;;;;;;;;;;;;;29.96;26.57;99372.06;4967849;28;19909;-96
2023/09/12 14:40:27;;;;;;;9.35;3.10;;;;;;;29.93;26.33;99361.78;4966501;28;19918;-95
2023/09/12 14:42:55;;;;;;;8.00;2.30;;;;;;;29.70;26.05;99353.06;4948927;28;20047;-94
2023/09/12 14:45:27;;;;;;;8.77;2.80;;;;;;;29.70;26.75;99353.91;4965959;28;20031;-95
2023/09/12 14:47:55;;;;;;;8.25;4.38;;;;;;;29.65;27.50;99353.47;4950712;28;20090;-95
2023/09/12 14:50:28;;;;;;;9.40;2.67;;;;;;;29.64;28.48;99357.44;4949598;28;20035;-94
2023/09/12 14:55:39;;;;;;;9.65;2.40;;;;;;;29.57;28.59;99364.59;4965768;28;20110;-96
2023/09/12 14:58:04;;;;;;;7.20;2.60;;;;;;;29.24;28.87;99346.38;4946464;28;20045;-94
2023/09/12 15:00:37;;;;;;;6.93;2.47;;;;;;;29.23;29.25;99360.63;4946013;28;20038;-92
2023/09/12 15:03:06;;;;;;;7.47;2.60;;;;;;;29.05;30.04;99355.78;4964388;28;20037;-93
2023/09/12 15:05:34;;;;;;;16.38;3.08;;;;;;;28.92;30.09;99357.38;4947457;28;20501;-93
2023/09/12 15:07:59;;;;;;;8.52;3.00;;;;;;;28.80;29.92;99359.34;4960867;28;20504;-93
2023/09/12 15:10:25;;;;;;;7.88;3.00;;;;;;;28.59;30.91;99348.97;4945732;28;20038;-92
2023/09/12 15:12:50;;;;;;;7.10;2.42;;;;;;;28.56;31.38;99360.06;4962487;28;20126;-94
2023/09/12 15:15:19;;;;;;;5.53;2.30;;;;;;;28.46;31.82;99374.63;4961803;28;20027;-94
2023/09/12 15:17:47;;;;;;;7.15;3.17;;;;;;;28.30;32.00;99369.41;4945631;28;20121;-94
2023/09/12 15:20:12;;;;;;;7.18;2.92;;;;;;;28.19;32.43;99374.88;4962432;28;20038;-93
2023/09/12 15:22:43;;;;;;;6.65;2.50;;;;;;;28.01;31.13;99361.72;4944871;28;20042;-94
2023/09/12 15:25:08;;;;;;;7.95;3.10;;;;;;;27.92;31.73;99375.13;4945361;28;20563;-94
2023/09/12 15:27:35;;;;;;;6.53;2.85;;;;;;;27.83;32.55;99366.34;4947346;28;20034;-94
2023/09/12 15:30:01;;;;;;;7.78;2.20;;;;;;;27.70;32.60;99373.34;4962189;28;20053;-94